Airfield :
LOGIN :

Register | Disclaimer

   EN    FR    IT 

 










Legend :    VFR   Marginal VFR   IFR   Intensive IFR   Very Intensive IFR
Visi :
Ceiling :
>= 8 km
>= 3000ft
5 to 8 km
1000 to 3000 ft
1500m to 5 km
500 to 1000 ft
800 to 1500m
200 to 500 ft
< 800m
< 200 ft
Symbols :   Thunderstorms  Fog  Heavy snow  Heavy precipitations  Wind > 20 kt
SIGMETs :     Misc.  Thunderstorms  Icing  Turbulence  Mountain Waves  Volcanic Ashes







- Airport Elevation : 32 ft
- IATA code : LKZ


EGUL - RAF Lakenheath

CURRENT METAR :
  • 171056Z AUTO 18004KT 9999 BKN070 00/00 A3018 RMK AO2 FZDZE0959FZDZB03E15 SLP224 T10051005 $

EXPIRED METARs :
  • 171022Z AUTO 17003KT 9999 SCT005 BKN080 M01/M01 A3020 RMK AO2 FZDZE0959FZDZB03E15 SLP231 $
  • 171015Z AUTO 17003KT 9999 BKN005 BKN085 M01/M01 A3020 RMK AO2 FZDZE0959FZDZB03E15 CIG 003V005 BKN005 V OVC SLP231 $
  • 171003Z AUTO 18003KT 9999 -FZDZ OVC003 M01/M01 A3021 RMK AO2 FZDZE0959FZDZB03 SLP234 $
  • 170946Z AUTO 21004KT 9000 -FZDZ BR OVC003 M01/M01 A3021 RMK AO2 FZDZE04FZDZB07E21FZDZB27E40FZDZB46 CIG 002 RWY06 SLP234 $
  • 170934Z AUTO 21003KT 5000 -FZDZ BR OVC003 M02/M02 A3021 RMK AO2 FZDZE04FZDZB07E21FZDZB27 CIG 002 RWY06 SLP234 $
  • 170923Z AUTO 00000KT 2000 BR OVC004 M02/M02 A3020 RMK AO2 VIS 0800V2000 FZDZE04FZDZB07E21 CIG 001 RWY06 SLP231 $
  • 170912Z AUTO 18004KT 0800 R24/0750V1000 -FZDZ VV005 M02/M02 A3020 RMK AO2 FZDZE04FZDZB07 CIG 002V005 CIG 001 RWY06 SLP231 $
  • 170904Z AUTO 18003KT 0600 R24/0550V0800 M VV002 M02/M02 A3021 RMK AO2 FZDZE04 CIG 001 RWY06 SLP234 $

Expired Forecast.
No reported NOTAMs for that airfield.



MET'MAP, your aeronautical weather chart ! - Copyright ORBIFLY December 2007 - Disclaimer

ORBIFLY MET'MAP TEAM :

Programming & Development : Alexandra Zaïnal
Concept & Development : Baudouin d'Aumeries
Co-Development & Prog : Marc-Olivier Méhu
Technical & hardware support : Manuel Goepfert

Contact : metmap@orbifly.com




SOURCES & CREDITS :

   NOAA